sensor_id;sensor_type;location;lat;lon;timestamp;pressure;altitude;pressure_sealevel;temperature;humidity
4836;BME280;66719;51.226;6.902;2023-09-12T00:02:10;100521.75;;;21.13;100.00
4836;BME280;66719;51.226;6.902;2023-09-12T00:04:37;100528.09;;;21.11;100.00
4836;BME280;66719;51.226;6.902;2023-09-12T00:07:03;100522.13;;;21.07;100.00
4836;BME280;66719;51.226;6.902;2023-09-12T00:09:30;100532.44;;;20.99;100.00
4836;BME280;66719;51.226;6.902;2023-09-12T00:11:56;100538.06;;;20.95;100.00
4836;BME280;66719;51.226;6.902;2023-09-12T00:14:23;100530.38;;;20.90;100.00
4836;BME280;66719;51.226;6.902;2023-09-12T00:16:49;100526.09;;;20.87;100.00
4836;BME280;66719;51.226;6.902;2023-09-12T00:19:19;100522.50;;;20.88;100.00
4836;BME280;66719;51.226;6.902;2023-09-12T00:21:45;100528.28;;;20.95;100.00
4836;BME280;66719;51.226;6.902;2023-09-12T00:24:12;100550.31;;;20.97;100.00
4836;BME280;66719;51.226;6.902;2023-09-12T00:26:38;100537.22;;;20.94;100.00
4836;BME280;66719;51.226;6.902;2023-09-12T00:29:05;100538.94;;;20.95;100.00
4836;BME280;66719;51.226;6.902;2023-09-12T00:31:31;100531.13;;;20.92;100.00
4836;BME280;66719;51.226;6.902;2023-09-12T00:33:58;100512.69;;;20.89;100.00
4836;BME280;66719;51.226;6.902;2023-09-12T00:36:25;100497.47;;;20.91;100.00
4836;BME280;66719;51.226;6.902;2023-09-12T00:38:51;100482.91;;;20.97;100.00
4836;BME280;66719;51.226;6.902;2023-09-12T00:41:18;100457.78;;;21.01;100.00
4836;BME280;66719;51.226;6.902;2023-09-12T00:43:44;100454.16;;;21.02;100.00
4836;BME280;66719;51.226;6.902;2023-09-12T00:46:14;100436.47;;;21.01;100.00
4836;BME280;66719;51.226;6.902;2023-09-12T00:48:45;100427.75;;;20.99;100.00
4836;BME280;66719;51.226;6.902;2023-09-12T00:51:14;100419.53;;;21.02;100.00
4836;BME280;66719;51.226;6.902;2023-09-12T00:53:42;100414.31;;;21.00;100.00
4836;BME280;66719;51.226;6.902;2023-09-12T00:56:09;100422.19;;;21.02;100.00
4836;BME280;66719;51.226;6.902;2023-09-12T00:58:36;100433.63;;;21.04;100.00
4836;BME280;66719;51.226;6.902;2023-09-12T01:01:03;100447.44;;;20.96;100.00
4836;BME280;66719;51.226;6.902;2023-09-12T01:03:31;100458.50;;;20.90;100.00
4836;BME280;66719;51.226;6.902;2023-09-12T01:05:59;100471.34;;;20.83;100.00
4836;BME280;66719;51.226;6.902;2023-09-12T01:08:26;100466.22;;;20.80;100.00
4836;BME280;66719;51.226;6.902;2023-09-12T01:10:55;100461.41;;;20.73;100.00
4836;BME280;66719;51.226;6.902;2023-09-12T01:13:23;100458.44;;;20.77;100.00
4836;BME280;66719;51.226;6.902;2023-09-12T01:15:49;100477.72;;;20.81;100.00
4836;BME280;66719;51.226;6.902;2023-09-12T01:18:16;100490.06;;;20.82;100.00
4836;BME280;66719;51.226;6.902;2023-09-12T01:23:40;100485.75;;;20.67;100.00
4836;BME280;66719;51.226;6.902;2023-09-12T01:26:29;100473.09;;;20.70;100.00
4836;BME280;66719;51.226;6.902;2023-09-12T01:28:57;100469.19;;;20.76;100.00
4836;BME280;66719;51.226;6.902;2023-09-12T01:31:25;100483.91;;;20.81;100.00
4836;BME280;66719;51.226;6.902;2023-09-12T01:34:08;100482.19;;;20.80;100.00
4836;BME280;66719;51.226;6.902;2023-09-12T01:36:35;100484.75;;;20.82;100.00
4836;BME280;66719;51.226;6.902;2023-09-12T01:39:02;100495.63;;;20.79;100.00
4836;BME280;66719;51.226;6.902;2023-09-12T01:41:31;100502.91;;;20.75;100.00
4836;BME280;66719;51.226;6.902;2023-09-12T01:43:59;100505.31;;;20.66;100.00
4836;BME280;66719;51.226;6.902;2023-09-12T01:46:27;100497.75;;;20.59;100.00
4836;BME280;66719;51.226;6.902;2023-09-12T01:48:55;100495.16;;;20.58;100.00
4836;BME280;66719;51.226;6.902;2023-09-12T01:51:24;100486.75;;;20.51;100.00
4836;BME280;66719;51.226;6.902;2023-09-12T01:53:52;100485.03;;;20.50;100.00
4836;BME280;66719;51.226;6.902;2023-09-12T01:56:20;100474.28;;;20.52;100.00
4836;BME280;66719;51.226;6.902;2023-09-12T01:58:47;100464.59;;;20.51;100.00
4836;BME280;66719;51.226;6.902;2023-09-12T02:01:14;100458.22;;;20.53;100.00
4836;BME280;66719;51.226;6.902;2023-09-12T02:03:40;100457.06;;;20.57;100.00
4836;BME280;66719;51.226;6.902;2023-09-12T02:06:07;100459.34;;;20.64;100.00
4836;BME280;66719;51.226;6.902;2023-09-12T02:08:33;100464.44;;;20.67;100.00
4836;BME280;66719;51.226;6.902;2023-09-12T02:11:00;100466.94;;;20.70;100.00
4836;BME280;66719;51.226;6.902;2023-09-12T02:13:26;100460.28;;;20.63;100.00
4836;BME280;66719;51.226;6.902;2023-09-12T02:16:00;100463.56;;;20.53;100.00
4836;BME280;66719;51.226;6.902;2023-09-12T02:18:27;100469.81;;;20.52;100.00
4836;BME280;66719;51.226;6.902;2023-09-12T02:20:54;100486.66;;;20.53;100.00
4836;BME280;66719;51.226;6.902;2023-09-12T02:23:20;100490.16;;;20.53;100.00
4836;BME280;66719;51.226;6.902;2023-09-12T02:25:47;100498.03;;;20.55;100.00
4836;BME280;66719;51.226;6.902;2023-09-12T02:28:13;100499.75;;;20.56;100.00
4836;BME280;66719;51.226;6.902;2023-09-12T02:30:40;100507.63;;;20.57;100.00
4836;BME280;66719;51.226;6.902;2023-09-12T02:33:07;100517.41;;;20.57;100.00
4836;BME280;66719;51.226;6.902;2023-09-12T02:35:33;100516.56;;;20.56;100.00
4836;BME280;66719;51.226;6.902;2023-09-12T02:38:00;100513.91;;;20.56;100.00
4836;BME280;66719;51.226;6.902;2023-09-12T02:40:26;100497.94;;;20.56;100.00
4836;BME280;66719;51.226;6.902;2023-09-12T02:42:53;100503.16;;;20.58;100.00
4836;BME280;66719;51.226;6.902;2023-09-12T02:45:19;100501.16;;;20.62;100.00
4836;BME280;66719;51.226;6.902;2023-09-12T02:47:46;100505.44;;;20.64;100.00
4836;BME280;66719;51.226;6.902;2023-09-12T02:50:13;100494.78;;;20.64;100.00
4836;BME280;66719;51.226;6.902;2023-09-12T02:52:39;100479.88;;;20.62;100.00
4836;BME280;66719;51.226;6.902;2023-09-12T02:55:06;100481.69;;;20.61;100.00
4836;BME280;66719;51.226;6.902;2023-09-12T02:57:33;100475.63;;;20.59;100.00
4836;BME280;66719;51.226;6.902;2023-09-12T02:59:59;100464.19;;;20.57;100.00
4836;BME280;66719;51.226;6.902;2023-09-12T03:02:26;100459.81;;;20.56;100.00
4836;BME280;66719;51.226;6.902;2023-09-12T03:04:55;100457.28;;;20.54;100.00
4836;BME280;66719;51.226;6.902;2023-09-12T03:07:22;100454.41;;;20.57;100.00
4836;BME280;66719;51.226;6.902;2023-09-12T03:09:49;100452.16;;;20.51;100.00
4836;BME280;66719;51.226;6.902;2023-09-12T03:12:16;100457.56;;;20.50;100.00
4836;BME280;66719;51.226;6.902;2023-09-12T03:14:43;100455.66;;;20.52;100.00
4836;BME280;66719;51.226;6.902;2023-09-12T03:17:09;100452.16;;;20.51;100.00
4836;BME280;66719;51.226;6.902;2023-09-12T03:19:36;100447.59;;;20.53;100.00
4836;BME280;66719;51.226;6.902;2023-09-12T03:22:03;100449.50;;;20.51;100.00
4836;BME280;66719;51.226;6.902;2023-09-12T03:24:30;100439.81;;;20.50;100.00
4836;BME280;66719;51.226;6.902;2023-09-12T03:26:57;100445.19;;;20.49;100.00
4836;BME280;66719;51.226;6.902;2023-09-12T03:29:24;100440.56;;;20.52;100.00
4836;BME280;66719;51.226;6.902;2023-09-12T03:31:50;100446.84;;;20.51;100.00
4836;BME280;66719;51.226;6.902;2023-09-12T03:34:17;100440.84;;;20.48;100.00
4836;BME280;66719;51.226;6.902;2023-09-12T03:36:45;100438.28;;;20.46;100.00
4836;BME280;66719;51.226;6.902;2023-09-12T03:39:11;100429.63;;;20.43;100.00
4836;BME280;66719;51.226;6.902;2023-09-12T03:41:39;100432.34;;;20.41;100.00
4836;BME280;66719;51.226;6.902;2023-09-12T03:44:06;100430.50;;;20.43;100.00
4836;BME280;66719;51.226;6.902;2023-09-12T03:46:32;100417.00;;;20.46;100.00
4836;BME280;66719;51.226;6.902;2023-09-12T03:48:59;100412.63;;;20.45;100.00
4836;BME280;66719;51.226;6.902;2023-09-12T03:51:26;100409.97;;;20.45;100.00
4836;BME280;66719;51.226;6.902;2023-09-12T03:53:52;100401.88;;;20.47;100.00
4836;BME280;66719;51.226;6.902;2023-09-12T03:56:19;100401.78;;;20.48;100.00
4836;BME280;66719;51.226;6.902;2023-09-12T03:58:46;100400.19;;;20.46;100.00
4836;BME280;66719;51.226;6.902;2023-09-12T04:01:13;100400.28;;;20.44;100.00
4836;BME280;66719;51.226;6.902;2023-09-12T04:03:40;100398.84;;;20.39;100.00
4836;BME280;66719;51.226;6.902;2023-09-12T04:06:06;100403.69;;;20.32;100.00
4836;BME280;66719;51.226;6.902;2023-09-12T04:08:33;100393.06;;;20.32;100.00
4836;BME280;66719;51.226;6.902;2023-09-12T04:10:59;100395.53;;;20.35;100.00
4836;BME280;66719;51.226;6.902;2023-09-12T04:13:26;100388.50;;;20.34;100.00
4836;BME280;66719;51.226;6.902;2023-09-12T04:15:53;100382.97;;;20.37;100.00
4836;BME280;66719;51.226;6.902;2023-09-12T04:18:19;100381.91;;;20.40;100.00
4836;BME280;66719;51.226;6.902;2023-09-12T04:20:46;100386.22;;;20.42;100.00
4836;BME280;66719;51.226;6.902;2023-09-12T04:23:12;100387.94;;;20.43;100.00
4836;BME280;66719;51.226;6.902;2023-09-12T04:25:42;100386.13;;;20.44;100.00
4836;BME280;66719;51.226;6.902;2023-09-12T04:28:09;100391.53;;;20.42;100.00
4836;BME280;66719;51.226;6.902;2023-09-12T04:30:36;100390.75;;;20.40;100.00
4836;BME280;66719;51.226;6.902;2023-09-12T04:33:03;100389.06;;;20.39;100.00
4836;BME280;66719;51.226;6.902;2023-09-12T04:35:33;100393.63;;;20.37;100.00
4836;BME280;66719;51.226;6.902;2023-09-12T04:37:59;100387.56;;;20.35;100.00
4836;BME280;66719;51.226;6.902;2023-09-12T04:40:26;100392.97;;;20.33;100.00
4836;BME280;66719;51.226;6.902;2023-09-12T04:42:53;100400.84;;;20.35;100.00
4836;BME280;66719;51.226;6.902;2023-09-12T04:45:20;100406.19;;;20.35;100.00
4836;BME280;66719;51.226;6.902;2023-09-12T04:47:46;100410.66;;;20.35;100.00
4836;BME280;66719;51.226;6.902;2023-09-12T04:50:13;100414.25;;;20.33;100.00
4836;BME280;66719;51.226;6.902;2023-09-12T04:52:40;100413.41;;;20.33;100.00
4836;BME280;66719;51.226;6.902;2023-09-12T04:55:06;100432.78;;;20.35;100.00
4836;BME280;66719;51.226;6.902;2023-09-12T04:57:33;100427.47;;;20.35;100.00
4836;BME280;66719;51.226;6.902;2023-09-12T04:59:59;100383.19;;;20.34;100.00
4836;BME280;66719;51.226;6.902;2023-09-12T05:02:26;100355.06;;;20.30;100.00
4836;BME280;66719;51.226;6.902;2023-09-12T05:04:53;100350.13;;;20.24;100.00
4836;BME280;66719;51.226;6.902;2023-09-12T05:07:19;100364.81;;;20.17;100.00
4836;BME280;66719;51.226;6.902;2023-09-12T05:09:46;100384.66;;;20.11;100.00
4836;BME280;66719;51.226;6.902;2023-09-12T05:12:13;100406.03;;;20.10;100.00
4836;BME280;66719;51.226;6.902;2023-09-12T05:14:40;100401.56;;;20.10;100.00
4836;BME280;66719;51.226;6.902;2023-09-12T05:17:06;100411.34;;;20.10;100.00
4836;BME280;66719;51.226;6.902;2023-09-12T05:19:33;100417.53;;;20.10;100.00
4836;BME280;66719;51.226;6.902;2023-09-12T05:21:59;100424.06;;;20.04;100.00
4836;BME280;66719;51.226;6.902;2023-09-12T05:24:26;100437.25;;;20.06;100.00
4836;BME280;66719;51.226;6.902;2023-09-12T05:26:53;100439.91;;;20.06;100.00
4836;BME280;66719;51.226;6.902;2023-09-12T05:29:19;100440.75;;;20.07;100.00
4836;BME280;66719;51.226;6.902;2023-09-12T05:31:46;100439.06;;;20.05;100.00
4836;BME280;66719;51.226;6.902;2023-09-12T05:34:12;100455.00;;;20.05;100.00
4836;BME280;66719;51.226;6.902;2023-09-12T05:36:39;100447.88;;;20.06;100.00
4836;BME280;66719;51.226;6.902;2023-09-12T05:39:05;100453.31;;;20.04;100.00
4836;BME280;66719;51.226;6.902;2023-09-12T05:41:33;100453.22;;;20.06;100.00
4836;BME280;66719;51.226;6.902;2023-09-12T05:43:59;100458.44;;;20.08;100.00
4836;BME280;66719;51.226;6.902;2023-09-12T05:46:26;100469.00;;;20.09;100.00
4836;BME280;66719;51.226;6.902;2023-09-12T05:48:52;100458.16;;;20.12;100.00
4836;BME280;66719;51.226;6.902;2023-09-12T05:51:19;100470.31;;;20.16;100.00
4836;BME280;66719;51.226;6.902;2023-09-12T05:53:45;100482.66;;;20.17;100.00
4836;BME280;66719;51.226;6.902;2023-09-12T05:56:12;100514.28;;;20.22;100.00
4836;BME280;66719;51.226;6.902;2023-09-12T05:58:38;100575.69;;;20.03;100.00
4836;BME280;66719;51.226;6.902;2023-09-12T06:01:09;100586.19;;;19.76;100.00
4836;BME280;66719;51.226;6.902;2023-09-12T06:03:35;100584.25;;;19.64;100.00
4836;BME280;66719;51.226;6.902;2023-09-12T06:06:03;100562.41;;;19.59;100.00
4836;BME280;66719;51.226;6.902;2023-09-12T06:08:30;100526.25;;;19.56;100.00
4836;BME280;66719;51.226;6.902;2023-09-12T06:10:56;100508.72;;;19.68;100.00
4836;BME280;66719;51.226;6.902;2023-09-12T06:13:23;100467.16;;;19.67;100.00
4836;BME280;66719;51.226;6.902;2023-09-12T06:15:51;100474.84;;;19.71;100.00
4836;BME280;66719;51.226;6.902;2023-09-12T06:18:17;100478.72;;;19.80;100.00
4836;BME280;66719;51.226;6.902;2023-09-12T06:20:46;100498.69;;;19.87;100.00
4836;BME280;66719;51.226;6.902;2023-09-12T06:23:12;100480.06;;;19.87;100.00
4836;BME280;66719;51.226;6.902;2023-09-12T06:25:39;100472.41;;;19.83;100.00
4836;BME280;66719;51.226;6.902;2023-09-12T06:28:08;100478.56;;;19.83;100.00
4836;BME280;66719;51.226;6.902;2023-09-12T06:30:35;100478.72;;;19.80;100.00
4836;BME280;66719;51.226;6.902;2023-09-12T06:33:02;100490.41;;;19.77;100.00
4836;BME280;66719;51.226;6.902;2023-09-12T06:35:29;100500.56;;;19.71;100.00
4836;BME280;66719;51.226;6.902;2023-09-12T06:37:55;100507.56;;;19.72;100.00
4836;BME280;66719;51.226;6.902;2023-09-12T06:40:23;100476.63;;;19.71;100.00
4836;BME280;66719;51.226;6.902;2023-09-12T06:42:49;100467.91;;;19.69;100.00
4836;BME280;66719;51.226;6.902;2023-09-12T06:45:16;100482.50;;;19.62;100.00
4836;BME280;66719;51.226;6.902;2023-09-12T06:47:43;100477.28;;;19.60;100.00
4836;BME280;66719;51.226;6.902;2023-09-12T06:50:09;100464.69;;;19.64;100.00
4836;BME280;66719;51.226;6.902;2023-09-12T06:52:41;100449.59;;;19.64;100.00
4836;BME280;66719;51.226;6.902;2023-09-12T06:55:07;100451.69;;;19.73;100.00
4836;BME280;66719;51.226;6.902;2023-09-12T06:57:34;100460.22;;;19.79;100.00
4836;BME280;66719;51.226;6.902;2023-09-12T07:00:01;100459.56;;;19.75;100.00
4836;BME280;66719;51.226;6.902;2023-09-12T07:02:27;100454.25;;;19.75;100.00
4836;BME280;66719;51.226;6.902;2023-09-12T07:04:54;100456.72;;;19.64;100.00
4836;BME280;66719;51.226;6.902;2023-09-12T07:07:21;100449.31;;;19.69;100.00
4836;BME280;66719;51.226;6.902;2023-09-12T07:09:47;100456.53;;;19.67;100.00
4836;BME280;66719;51.226;6.902;2023-09-12T07:12:14;100464.19;;;19.57;100.00
4836;BME280;66719;51.226;6.902;2023-09-12T07:14:41;100450.97;;;19.56;100.00
4836;BME280;66719;51.226;6.902;2023-09-12T07:17:07;100452.44;;;19.61;100.00
4836;BME280;66719;51.226;6.902;2023-09-12T07:19:34;100443.16;;;19.68;100.00
4836;BME280;66719;51.226;6.902;2023-09-12T07:22:00;100440.03;;;19.76;100.00
4836;BME280;66719;51.226;6.902;2023-09-12T07:24:27;100441.47;;;19.82;100.00
4836;BME280;66719;51.226;6.902;2023-09-12T07:26:54;100433.78;;;19.91;100.00
4836;BME280;66719;51.226;6.902;2023-09-12T07:29:20;100431.66;;;19.96;100.00
4836;BME280;66719;51.226;6.902;2023-09-12T07:31:47;100433.38;;;19.97;100.00
4836;BME280;66719;51.226;6.902;2023-09-12T07:34:14;100420.00;;;19.99;100.00
4836;BME280;66719;51.226;6.902;2023-09-12T07:36:41;100427.88;;;20.00;100.00
4836;BME280;66719;51.226;6.902;2023-09-12T07:39:07;100425.97;;;20.02;100.00
4836;BME280;66719;51.226;6.902;2023-09-12T07:41:34;100421.22;;;20.08;100.00
4836;BME280;66719;51.226;6.902;2023-09-12T07:44:01;100420.72;;;20.15;100.00
4836;BME280;66719;51.226;6.902;2023-09-12T07:46:31;100422.03;;;20.22;100.00
4836;BME280;66719;51.226;6.902;2023-09-12T07:48:57;100417.41;;;20.26;100.00
4836;BME280;66719;51.226;6.902;2023-09-12T07:51:25;100423.47;;;20.28;100.00
4836;BME280;66719;51.226;6.902;2023-09-12T07:53:51;100424.31;;;20.28;100.00
4836;BME280;66719;51.226;6.902;2023-09-12T07:56:18;100431.34;;;20.29;100.00
4836;BME280;66719;51.226;6.902;2023-09-12T07:58:44;100430.50;;;20.29;100.00
4836;BME280;66719;51.226;6.902;2023-09-12T08:01:11;100432.03;;;20.33;100.00
4836;BME280;66719;51.226;6.902;2023-09-12T08:03:39;100438.94;;;20.36;100.00
4836;BME280;66719;51.226;6.902;2023-09-12T08:06:06;100435.91;;;20.42;100.00
4836;BME280;66719;51.226;6.902;2023-09-12T08:08:33;100440.72;;;20.49;100.00
4836;BME280;66719;51.226;6.902;2023-09-12T08:11:00;100444.59;;;20.58;100.00
4836;BME280;66719;51.226;6.902;2023-09-12T08:13:28;100447.19;;;20.59;100.00
4836;BME280;66719;51.226;6.902;2023-09-12T08:15:55;100445.47;;;20.58;100.00
4836;BME280;66719;51.226;6.902;2023-09-12T08:18:28;100453.25;;;20.62;100.00
4836;BME280;66719;51.226;6.902;2023-09-12T08:20:55;100449.84;;;20.59;100.00
4836;BME280;66719;51.226;6.902;2023-09-12T08:23:22;100449.94;;;20.58;100.00
4836;BME280;66719;51.226;6.902;2023-09-12T08:25:49;100444.72;;;20.56;100.00
4836;BME280;66719;51.226;6.902;2023-09-12T08:28:16;100454.72;;;20.53;100.00
4836;BME280;66719;51.226;6.902;2023-09-12T08:30:44;100462.88;;;20.50;100.00
4836;BME280;66719;51.226;6.902;2023-09-12T08:33:11;100460.31;;;20.48;100.00
4836;BME280;66719;51.226;6.902;2023-09-12T08:35:38;100469.94;;;20.51;100.00
4836;BME280;66719;51.226;6.902;2023-09-12T08:38:05;100468.47;;;20.59;100.00
4836;BME280;66719;51.226;6.902;2023-09-12T08:40:35;100465.72;;;20.61;100.00
4836;BME280;66719;51.226;6.902;2023-09-12T08:43:02;100461.25;;;20.62;100.00
4836;BME280;66719;51.226;6.902;2023-09-12T08:45:30;100469.41;;;20.58;100.00
4836;BME280;66719;51.226;6.902;2023-09-12T08:47:59;100474.94;;;20.55;100.00
4836;BME280;66719;51.226;6.902;2023-09-12T08:50:29;100480.16;;;20.57;100.00
4836;BME280;66719;51.226;6.902;2023-09-12T08:52:59;100480.06;;;20.58;100.00
4836;BME280;66719;51.226;6.902;2023-09-12T08:55:34;100489.94;;;20.56;100.00
4836;BME280;66719;51.226;6.902;2023-09-12T08:58:05;100496.91;;;20.59;100.00
4836;BME280;66719;51.226;6.902;2023-09-12T09:00:32;100498.50;;;20.62;100.00
4836;BME280;66719;51.226;6.902;2023-09-12T09:03:00;100502.03;;;20.62;100.00
4836;BME280;66719;51.226;6.902;2023-09-12T09:05:27;100500.31;;;20.61;100.00
4836;BME280;66719;51.226;6.902;2023-09-12T09:07:55;100517.13;;;20.62;100.00
4836;BME280;66719;51.226;6.902;2023-09-12T09:10:23;100513.63;;;20.61;100.00
4836;BME280;66719;51.226;6.902;2023-09-12T09:13:08;100520.44;;;20.65;100.00
4836;BME280;66719;51.226;6.902;2023-09-12T09:15:37;100532.78;;;20.66;100.00
4836;BME280;66719;51.226;6.902;2023-09-12T09:18:09;100525.47;;;20.70;100.00
4836;BME280;66719;51.226;6.902;2023-09-12T09:20:38;100530.50;;;20.74;100.00
4836;BME280;66719;51.226;6.902;2023-09-12T09:23:08;100538.19;;;20.79;100.00
4836;BME280;66719;51.226;6.902;2023-09-12T09:25:40;100546.94;;;20.81;100.00
4836;BME280;66719;51.226;6.902;2023-09-12T09:28:20;100549.84;;;20.91;100.00
4836;BME280;66719;51.226;6.902;2023-09-12T09:30:49;100543.66;;;21.04;100.00
4836;BME280;66719;51.226;6.902;2023-09-12T09:33:17;100534.22;;;21.13;100.00
4836;BME280;66719;51.226;6.902;2023-09-12T09:35:48;100534.09;;;21.14;100.00
4836;BME280;66719;51.226;6.902;2023-09-12T09:38:18;100533.78;;;21.19;100.00
4836;BME280;66719;51.226;6.902;2023-09-12T09:40:45;100540.28;;;21.15;100.00
4836;BME280;66719;51.226;6.902;2023-09-12T09:43:12;100536.97;;;21.11;100.00
4836;BME280;66719;51.226;6.902;2023-09-12T09:45:45;100538.00;;;21.09;100.00
4836;BME280;66719;51.226;6.902;2023-09-12T09:48:23;100542.84;;;21.16;100.00
4836;BME280;66719;51.226;6.902;2023-09-12T09:50:51;100536.06;;;21.25;100.00
4836;BME280;66719;51.226;6.902;2023-09-12T09:53:29;100528.16;;;21.24;100.00
4836;BME280;66719;51.226;6.902;2023-09-12T09:56:15;100527.31;;;21.23;100.00
4836;BME280;66719;51.226;6.902;2023-09-12T09:58:46;100522.75;;;21.25;100.00
4836;BME280;66719;51.226;6.902;2023-09-12T10:01:17;100534.25;;;21.26;100.00
4836;BME280;66719;51.226;6.902;2023-09-12T10:03:47;100547.19;;;21.32;100.00
4836;BME280;66719;51.226;6.902;2023-09-12T10:06:15;100539.94;;;21.34;100.00
4836;BME280;66719;51.226;6.902;2023-09-12T10:08:50;100538.81;;;21.38;100.00
4836;BME280;66719;51.226;6.902;2023-09-12T10:11:18;100537.00;;;21.38;100.00
4836;BME280;66719;51.226;6.902;2023-09-12T10:13:56;100533.16;;;21.42;100.00
4836;BME280;66719;51.226;6.902;2023-09-12T10:16:25;100539.00;;;21.35;100.00
4836;BME280;66719;51.226;6.902;2023-09-12T10:19:20;100524.63;;;21.37;100.00
4836;BME280;66719;51.226;6.902;2023-09-12T10:24:27;100527.94;;;21.41;100.00
4836;BME280;66719;51.226;6.902;2023-09-12T10:26:55;100522.28;;;21.45;100.00
4836;BME280;66719;51.226;6.902;2023-09-12T10:29:23;100515.47;;;21.54;100.00
4836;BME280;66719;51.226;6.902;2023-09-12T10:31:49;100521.16;;;21.62;100.00
4836;BME280;66719;51.226;6.902;2023-09-12T10:34:16;100524.25;;;21.69;100.00
4836;BME280;66719;51.226;6.902;2023-09-12T10:36:45;100516.19;;;21.83;100.00
4836;BME280;66719;51.226;6.902;2023-09-12T10:39:14;100514.13;;;21.87;100.00
4836;BME280;66719;51.226;6.902;2023-09-12T10:41:41;100509.34;;;21.92;100.00
4836;BME280;66719;51.226;6.902;2023-09-12T10:44:17;100501.13;;;21.95;100.00
4836;BME280;66719;51.226;6.902;2023-09-12T10:46:45;100507.00;;;22.00;100.00
4836;BME280;66719;51.226;6.902;2023-09-12T10:49:13;100519.16;;;22.04;100.00
4836;BME280;66719;51.226;6.902;2023-09-12T10:51:45;100515.63;;;22.04;100.00
4836;BME280;66719;51.226;6.902;2023-09-12T10:54:22;100516.50;;;22.04;100.00
4836;BME280;66719;51.226;6.902;2023-09-12T10:57:05;100511.03;;;22.06;100.00
4836;BME280;66719;51.226;6.902;2023-09-12T10:59:32;100520.00;;;22.05;100.00
4836;BME280;66719;51.226;6.902;2023-09-12T11:02:27;100511.00;;;22.07;100.00
4836;BME280;66719;51.226;6.902;2023-09-12T11:04:55;100513.44;;;22.10;100.00
4836;BME280;66719;51.226;6.902;2023-09-12T11:12:43;100507.66;;;22.42;100.00
4836;BME280;66719;51.226;6.902;2023-09-12T11:15:10;100506.88;;;22.40;100.00
4836;BME280;66719;51.226;6.902;2023-09-12T11:17:41;100510.63;;;22.37;100.00
4836;BME280;66719;51.226;6.902;2023-09-12T11:20:09;100510.94;;;22.33;100.00
4836;BME280;66719;51.226;6.902;2023-09-12T11:22:41;100517.25;;;22.32;100.00
4836;BME280;66719;51.226;6.902;2023-09-12T11:25:25;100512.88;;;22.31;100.00
4836;BME280;66719;51.226;6.902;2023-09-12T11:30:28;100526.97;;;22.33;100.00
4836;BME280;66719;51.226;6.902;2023-09-12T11:32:58;100534.66;;;22.37;100.00
4836;BME280;66719;51.226;6.902;2023-09-12T11:35:27;100528.56;;;22.35;100.00
4836;BME280;66719;51.226;6.902;2023-09-12T11:37:59;100535.63;;;22.36;100.00
4836;BME280;66719;51.226;6.902;2023-09-12T11:40:42;100526.97;;;22.33;100.00
4836;BME280;66719;51.226;6.902;2023-09-12T11:43:23;100530.09;;;22.26;100.00
4836;BME280;66719;51.226;6.902;2023-09-12T11:45:51;100523.03;;;22.25;100.00
4836;BME280;66719;51.226;6.902;2023-09-12T11:48:19;100524.63;;;22.28;100.00
4836;BME280;66719;51.226;6.902;2023-09-12T11:50:53;100531.97;;;22.37;100.00
4836;BME280;66719;51.226;6.902;2023-09-12T11:53:28;100534.72;;;22.48;100.00
4836;BME280;66719;51.226;6.902;2023-09-12T11:56:03;100531.94;;;22.50;100.00
4836;BME280;66719;51.226;6.902;2023-09-12T11:58:30;100527.03;;;22.56;100.00
4836;BME280;66719;51.226;6.902;2023-09-12T12:00:58;100522.53;;;22.57;100.00
4836;BME280;66719;51.226;6.902;2023-09-12T12:03:26;100524.47;;;22.55;100.00
4836;BME280;66719;51.226;6.902;2023-09-12T12:05:55;100519.13;;;22.55;100.00
4836;BME280;66719;51.226;6.902;2023-09-12T12:08:23;100517.75;;;22.62;100.00
4836;BME280;66719;51.226;6.902;2023-09-12T12:10:52;100524.22;;;22.71;100.00
4836;BME280;66719;51.226;6.902;2023-09-12T12:13:21;100524.13;;;22.72;100.00
4836;BME280;66719;51.226;6.902;2023-09-12T12:15:47;100527.19;;;22.79;100.00
4836;BME280;66719;51.226;6.902;2023-09-12T12:18:15;100524.13;;;22.85;100.00
4836;BME280;66719;51.226;6.902;2023-09-12T12:20:42;100529.66;;;22.95;100.00
4836;BME280;66719;51.226;6.902;2023-09-12T12:23:08;100522.88;;;23.02;100.00
4836;BME280;66719;51.226;6.902;2023-09-12T12:25:35;100510.06;;;23.18;100.00
4836;BME280;66719;51.226;6.902;2023-09-12T12:28:03;100508.88;;;23.46;100.00
4836;BME280;66719;51.226;6.902;2023-09-12T12:30:36;100504.25;;;23.72;100.00
4836;BME280;66719;51.226;6.902;2023-09-12T12:33:08;100495.78;;;24.01;100.00
4836;BME280;66719;51.226;6.902;2023-09-12T12:36:02;100500.16;;;24.24;100.00
4836;BME280;66719;51.226;6.902;2023-09-12T12:38:37;100497.75;;;24.32;100.00
4836;BME280;66719;51.226;6.902;2023-09-12T12:41:26;100507.63;;;24.43;100.00
4836;BME280;66719;51.226;6.902;2023-09-12T12:44:05;100502.81;;;24.58;100.00
4836;BME280;66719;51.226;6.902;2023-09-12T12:46:32;100495.78;;;24.68;100.00
4836;BME280;66719;51.226;6.902;2023-09-12T12:48:59;100487.72;;;24.79;100.00
4836;BME280;66719;51.226;6.902;2023-09-12T12:51:26;100488.59;;;25.00;100.00
4836;BME280;66719;51.226;6.902;2023-09-12T12:53:54;100487.38;;;25.16;100.00
4836;BME280;66719;51.226;6.902;2023-09-12T12:56:23;100481.38;;;25.23;100.00
4836;BME280;66719;51.226;6.902;2023-09-12T12:58:57;100481.25;;;25.25;100.00
4836;BME280;66719;51.226;6.902;2023-09-12T13:01:24;100485.63;;;25.26;100.00
4836;BME280;66719;51.226;6.902;2023-09-12T13:03:51;100472.28;;;25.35;100.00
4836;BME280;66719;51.226;6.902;2023-09-12T13:06:19;100478.41;;;25.38;100.00
4836;BME280;66719;51.226;6.902;2023-09-12T13:08:48;100475.56;;;25.39;100.00
4836;BME280;66719;51.226;6.902;2023-09-12T13:11:16;100477.34;;;25.29;100.00